sensor_id;sensor_type;location;lat;lon;timestamp;pressure;altitude;pressure_sealevel;temperature;humidity
11329;BME280;5719;42.714;23.732;2024-03-25T00:00:08;93044.66;;;6.59;100.00
11329;BME280;5719;42.714;23.732;2024-03-25T00:02:36;93043.88;;;6.48;100.00
11329;BME280;5719;42.714;23.732;2024-03-25T00:05:04;93048.84;;;6.60;100.00
11329;BME280;5719;42.714;23.732;2024-03-25T00:07:32;93035.09;;;6.50;100.00
11329;BME280;5719;42.714;23.732;2024-03-25T00:09:58;93039.44;;;6.50;100.00
11329;BME280;5719;42.714;23.732;2024-03-25T00:12:25;93048.81;;;6.71;100.00
11329;BME280;5719;42.714;23.732;2024-03-25T00:14:51;93056.41;;;6.73;100.00
11329;BME280;5719;42.714;23.732;2024-03-25T00:17:18;93055.56;;;6.72;100.00
11329;BME280;5719;42.714;23.732;2024-03-25T00:19:45;93060.97;;;6.69;100.00
11329;BME280;5719;42.714;23.732;2024-03-25T00:22:17;93069.44;;;6.81;100.00
11329;BME280;5719;42.714;23.732;2024-03-25T00:24:44;93073.28;;;7.07;100.00
11329;BME280;5719;42.714;23.732;2024-03-25T00:27:11;93088.41;;;7.21;100.00
11329;BME280;5719;42.714;23.732;2024-03-25T00:29:37;93091.84;;;7.11;100.00
11329;BME280;5719;42.714;23.732;2024-03-25T00:32:04;93092.09;;;7.08;100.00
11329;BME280;5719;42.714;23.732;2024-03-25T00:34:31;93082.19;;;7.03;100.00
11329;BME280;5719;42.714;23.732;2024-03-25T00:36:58;93093.00;;;6.86;100.00
11329;BME280;5719;42.714;23.732;2024-03-25T00:39:25;93108.38;;;6.54;100.00
11329;BME280;5719;42.714;23.732;2024-03-25T00:41:52;93105.75;;;6.33;100.00
11329;BME280;5719;42.714;23.732;2024-03-25T00:44:18;93103.53;;;6.07;100.00
11329;BME280;5719;42.714;23.732;2024-03-25T00:46:45;93106.59;;;6.12;100.00
11329;BME280;5719;42.714;23.732;2024-03-25T00:49:10;93095.03;;;5.95;100.00
11329;BME280;5719;42.714;23.732;2024-03-25T00:51:37;93086.47;;;5.72;100.00
11329;BME280;5719;42.714;23.732;2024-03-25T00:54:03;93084.16;;;5.69;100.00
11329;BME280;5719;42.714;23.732;2024-03-25T00:56:31;93083.69;;;5.53;100.00
11329;BME280;5719;42.714;23.732;2024-03-25T00:58:57;93097.31;;;5.54;100.00
11329;BME280;5719;42.714;23.732;2024-03-25T01:01:28;93096.50;;;5.53;100.00
11329;BME280;5719;42.714;23.732;2024-03-25T01:03:53;93084.66;;;5.28;100.00
11329;BME280;5719;42.714;23.732;2024-03-25T01:06:20;93075.81;;;5.32;100.00
11329;BME280;5719;42.714;23.732;2024-03-25T01:08:46;93082.00;;;5.30;100.00
11329;BME280;5719;42.714;23.732;2024-03-25T01:11:13;93090.28;;;5.33;100.00
11329;BME280;5719;42.714;23.732;2024-03-25T01:13:40;93082.69;;;5.21;100.00
11329;BME280;5719;42.714;23.732;2024-03-25T01:16:07;93074.19;;;5.20;100.00
11329;BME280;5719;42.714;23.732;2024-03-25T01:18:32;93075.03;;;5.43;100.00
11329;BME280;5719;42.714;23.732;2024-03-25T01:20:59;93074.34;;;5.52;100.00
11329;BME280;5719;42.714;23.732;2024-03-25T01:23:25;93084.13;;;5.47;100.00
11329;BME280;5719;42.714;23.732;2024-03-25T01:25:52;93078.34;;;5.21;100.00
11329;BME280;5719;42.714;23.732;2024-03-25T01:28:18;93080.56;;;5.15;100.00
11329;BME280;5719;42.714;23.732;2024-03-25T01:30:46;93069.13;;;5.08;100.00
11329;BME280;5719;42.714;23.732;2024-03-25T01:33:12;93058.44;;;5.03;100.00
11329;BME280;5719;42.714;23.732;2024-03-25T01:35:38;93056.97;;;4.87;100.00
11329;BME280;5719;42.714;23.732;2024-03-25T01:38:04;93051.44;;;4.70;100.00
11329;BME280;5719;42.714;23.732;2024-03-25T01:40:31;93057.06;;;4.51;100.00
11329;BME280;5719;42.714;23.732;2024-03-25T01:42:57;93066.31;;;4.41;100.00
11329;BME280;5719;42.714;23.732;2024-03-25T01:45:24;93062.22;;;4.38;100.00
11329;BME280;5719;42.714;23.732;2024-03-25T01:47:52;93067.59;;;4.23;100.00
11329;BME280;5719;42.714;23.732;2024-03-25T01:50:20;93078.88;;;4.20;100.00
11329;BME280;5719;42.714;23.732;2024-03-25T01:52:47;93076.59;;;4.28;100.00
11329;BME280;5719;42.714;23.732;2024-03-25T01:55:18;93079.25;;;4.27;100.00
11329;BME280;5719;42.714;23.732;2024-03-25T01:57:47;93074.66;;;4.19;100.00
11329;BME280;5719;42.714;23.732;2024-03-25T02:00:15;93084.72;;;4.10;100.00
11329;BME280;5719;42.714;23.732;2024-03-25T02:02:42;93098.34;;;3.97;100.00
11329;BME280;5719;42.714;23.732;2024-03-25T02:05:11;93100.00;;;3.99;100.00
11329;BME280;5719;42.714;23.732;2024-03-25T02:07:37;93105.84;;;3.88;100.00
11329;BME280;5719;42.714;23.732;2024-03-25T02:10:07;93106.03;;;3.97;100.00
11329;BME280;5719;42.714;23.732;2024-03-25T02:12:35;93093.06;;;3.75;100.00
11329;BME280;5719;42.714;23.732;2024-03-25T02:15:04;93075.06;;;3.89;100.00
11329;BME280;5719;42.714;23.732;2024-03-25T02:17:30;93081.66;;;4.17;100.00
11329;BME280;5719;42.714;23.732;2024-03-25T02:19:57;93049.91;;;4.20;100.00
11329;BME280;5719;42.714;23.732;2024-03-25T02:22:24;93080.72;;;4.42;100.00
11329;BME280;5719;42.714;23.732;2024-03-25T02:24:53;93091.47;;;4.47;100.00
11329;BME280;5719;42.714;23.732;2024-03-25T02:27:20;93098.50;;;4.20;100.00
11329;BME280;5719;42.714;23.732;2024-03-25T02:29:47;93097.81;;;4.05;100.00
11329;BME280;5719;42.714;23.732;2024-03-25T02:32:12;93104.22;;;4.23;100.00
11329;BME280;5719;42.714;23.732;2024-03-25T02:34:43;93086.59;;;4.08;100.00
11329;BME280;5719;42.714;23.732;2024-03-25T02:37:10;93086.66;;;4.19;100.00
11329;BME280;5719;42.714;23.732;2024-03-25T02:39:37;93085.94;;;4.17;100.00
11329;BME280;5719;42.714;23.732;2024-03-25T02:42:04;93084.81;;;4.21;100.00
11329;BME280;5719;42.714;23.732;2024-03-25T02:44:33;93081.81;;;4.27;100.00
11329;BME280;5719;42.714;23.732;2024-03-25T02:46:59;93078.44;;;4.26;100.00
11329;BME280;5719;42.714;23.732;2024-03-25T02:49:26;93082.91;;;4.35;100.00
11329;BME280;5719;42.714;23.732;2024-03-25T02:51:51;93079.53;;;4.35;100.00
11329;BME280;5719;42.714;23.732;2024-03-25T02:54:18;93066.06;;;3.97;100.00
11329;BME280;5719;42.714;23.732;2024-03-25T02:56:44;93077.50;;;4.04;100.00
11329;BME280;5719;42.714;23.732;2024-03-25T02:59:11;93072.59;;;4.01;100.00
11329;BME280;5719;42.714;23.732;2024-03-25T03:01:38;93076.38;;;4.08;100.00
11329;BME280;5719;42.714;23.732;2024-03-25T03:04:05;93074.66;;;4.19;100.00
11329;BME280;5719;42.714;23.732;2024-03-25T03:06:31;93056.00;;;4.06;100.00
11329;BME280;5719;42.714;23.732;2024-03-25T03:08:57;93081.88;;;4.14;100.00
11329;BME280;5719;42.714;23.732;2024-03-25T03:11:23;93079.69;;;4.21;100.00
11329;BME280;5719;42.714;23.732;2024-03-25T03:13:50;93077.19;;;4.32;100.00
11329;BME280;5719;42.714;23.732;2024-03-25T03:16:15;93083.88;;;4.22;100.00
11329;BME280;5719;42.714;23.732;2024-03-25T03:18:43;93090.22;;;4.29;100.00
11329;BME280;5719;42.714;23.732;2024-03-25T03:21:09;93085.56;;;4.34;100.00
11329;BME280;5719;42.714;23.732;2024-03-25T03:23:36;93084.59;;;4.24;100.00
11329;BME280;5719;42.714;23.732;2024-03-25T03:26:02;93076.38;;;4.08;100.00
11329;BME280;5719;42.714;23.732;2024-03-25T03:28:29;93088.88;;;4.23;100.00
11329;BME280;5719;42.714;23.732;2024-03-25T03:30:54;93110.75;;;4.27;100.00
11329;BME280;5719;42.714;23.732;2024-03-25T03:33:21;93117.53;;;4.16;100.00
11329;BME280;5719;42.714;23.732;2024-03-25T03:35:49;93117.88;;;3.99;100.00
11329;BME280;5719;42.714;23.732;2024-03-25T03:38:16;93114.41;;;3.87;100.00
11329;BME280;5719;42.714;23.732;2024-03-25T03:40:42;93126.06;;;4.04;100.00
11329;BME280;5719;42.714;23.732;2024-03-25T03:43:08;93108.00;;;3.81;100.00
11329;BME280;5719;42.714;23.732;2024-03-25T03:45:34;93131.88;;;4.06;100.00
11329;BME280;5719;42.714;23.732;2024-03-25T03:48:01;93152.22;;;4.20;100.00
11329;BME280;5719;42.714;23.732;2024-03-25T03:50:27;93146.78;;;4.24;100.00
11329;BME280;5719;42.714;23.732;2024-03-25T03:52:55;93158.50;;;3.90;100.00
11329;BME280;5719;42.714;23.732;2024-03-25T03:55:20;93158.00;;;3.85;100.00
11329;BME280;5719;42.714;23.732;2024-03-25T03:57:47;93168.72;;;4.03;100.00
11329;BME280;5719;42.714;23.732;2024-03-25T04:00:14;93163.38;;;4.19;100.00
11329;BME280;5719;42.714;23.732;2024-03-25T04:02:41;93156.19;;;4.24;100.00
11329;BME280;5719;42.714;23.732;2024-03-25T04:05:07;93169.06;;;4.35;100.00
11329;BME280;5719;42.714;23.732;2024-03-25T04:07:34;93163.31;;;3.82;100.00
11329;BME280;5719;42.714;23.732;2024-03-25T04:10:01;93163.25;;;3.32;100.00
11329;BME280;5719;42.714;23.732;2024-03-25T04:12:29;93180.38;;;3.05;100.00
11329;BME280;5719;42.714;23.732;2024-03-25T04:14:54;93181.88;;;2.94;100.00
11329;BME280;5719;42.714;23.732;2024-03-25T04:17:22;93178.41;;;2.95;100.00
11329;BME280;5719;42.714;23.732;2024-03-25T04:19:48;93181.75;;;2.83;100.00
11329;BME280;5719;42.714;23.732;2024-03-25T04:22:15;93189.72;;;2.91;100.00
11329;BME280;5719;42.714;23.732;2024-03-25T04:24:41;93202.47;;;2.91;100.00
11329;BME280;5719;42.714;23.732;2024-03-25T04:27:09;93223.09;;;2.88;100.00
11329;BME280;5719;42.714;23.732;2024-03-25T04:29:34;93213.75;;;2.75;100.00
11329;BME280;5719;42.714;23.732;2024-03-25T04:32:01;93204.44;;;2.74;100.00
11329;BME280;5719;42.714;23.732;2024-03-25T04:34:27;93207.31;;;2.69;100.00
11329;BME280;5719;42.714;23.732;2024-03-25T04:36:55;93204.44;;;2.74;100.00
11329;BME280;5719;42.714;23.732;2024-03-25T04:39:20;93213.03;;;2.73;100.00
11329;BME280;5719;42.714;23.732;2024-03-25T04:41:46;93203.63;;;2.73;100.00
11329;BME280;5719;42.714;23.732;2024-03-25T04:44:13;93209.06;;;2.81;100.00
11329;BME280;5719;42.714;23.732;2024-03-25T04:46:39;93208.38;;;2.79;100.00
11329;BME280;5719;42.714;23.732;2024-03-25T04:49:05;93197.25;;;2.66;100.00
11329;BME280;5719;42.714;23.732;2024-03-25T04:51:31;93218.41;;;2.68;100.00
11329;BME280;5719;42.714;23.732;2024-03-25T04:53:57;93204.59;;;2.58;100.00
11329;BME280;5719;42.714;23.732;2024-03-25T04:56:23;93257.19;;;2.73;100.00
11329;BME280;5719;42.714;23.732;2024-03-25T04:58:48;93261.03;;;2.80;100.00
11329;BME280;5719;42.714;23.732;2024-03-25T05:01:16;93272.16;;;2.79;100.00
11329;BME280;5719;42.714;23.732;2024-03-25T05:03:41;93259.22;;;2.82;100.00
11329;BME280;5719;42.714;23.732;2024-03-25T05:06:07;93250.44;;;2.86;100.00
11329;BME280;5719;42.714;23.732;2024-03-25T05:08:33;93269.03;;;2.88;100.00
11329;BME280;5719;42.714;23.732;2024-03-25T05:10:59;93264.56;;;2.92;100.00
11329;BME280;5719;42.714;23.732;2024-03-25T05:13:24;93262.94;;;2.91;100.00
11329;BME280;5719;42.714;23.732;2024-03-25T05:15:50;93250.31;;;3.02;100.00
11329;BME280;5719;42.714;23.732;2024-03-25T05:18:18;93265.06;;;3.11;100.00
11329;BME280;5719;42.714;23.732;2024-03-25T05:20:44;93259.53;;;3.17;100.00
11329;BME280;5719;42.714;23.732;2024-03-25T05:23:10;93249.81;;;3.10;100.00
11329;BME280;5719;42.714;23.732;2024-03-25T05:25:36;93258.84;;;3.15;100.00
11329;BME280;5719;42.714;23.732;2024-03-25T05:28:02;93254.44;;;3.17;100.00
11329;BME280;5719;42.714;23.732;2024-03-25T05:30:28;93247.81;;;3.15;100.00
11329;BME280;5719;42.714;23.732;2024-03-25T05:32:53;93257.94;;;3.16;100.00
11329;BME280;5719;42.714;23.732;2024-03-25T05:35:20;93248.81;;;3.12;100.00
11329;BME280;5719;42.714;23.732;2024-03-25T05:37:47;93259.69;;;3.28;100.00
11329;BME280;5719;42.714;23.732;2024-03-25T05:40:13;93266.81;;;3.50;100.00
11329;BME280;5719;42.714;23.732;2024-03-25T05:42:39;93277.81;;;3.77;100.00
11329;BME280;5719;42.714;23.732;2024-03-25T05:45:05;93274.97;;;3.94;100.00
11329;BME280;5719;42.714;23.732;2024-03-25T05:47:31;93265.97;;;4.02;100.00
11329;BME280;5719;42.714;23.732;2024-03-25T05:49:57;93290.44;;;4.18;100.00
11329;BME280;5719;42.714;23.732;2024-03-25T05:52:24;93280.59;;;4.12;100.00
11329;BME280;5719;42.714;23.732;2024-03-25T05:54:50;93288.81;;;4.17;100.00
11329;BME280;5719;42.714;23.732;2024-03-25T05:57:16;93285.53;;;4.28;100.00
11329;BME280;5719;42.714;23.732;2024-03-25T05:59:41;93294.09;;;4.27;100.00
11329;BME280;5719;42.714;23.732;2024-03-25T06:02:07;93297.19;;;4.19;100.00
11329;BME280;5719;42.714;23.732;2024-03-25T06:04:33;93302.28;;;4.07;100.00
11329;BME280;5719;42.714;23.732;2024-03-25T06:06:59;93307.81;;;4.01;100.00
11329;BME280;5719;42.714;23.732;2024-03-25T06:09:26;93319.25;;;3.95;100.00
11329;BME280;5719;42.714;23.732;2024-03-25T06:11:52;93321.94;;;4.06;100.00
11329;BME280;5719;42.714;23.732;2024-03-25T06:14:18;93331.16;;;4.21;100.00
11329;BME280;5719;42.714;23.732;2024-03-25T06:16:43;93342.09;;;4.11;100.00
11329;BME280;5719;42.714;23.732;2024-03-25T06:19:09;93326.53;;;4.14;100.00
11329;BME280;5719;42.714;23.732;2024-03-25T06:21:35;93328.09;;;4.41;100.00
11329;BME280;5719;42.714;23.732;2024-03-25T06:24:01;93331.16;;;4.47;100.00
11329;BME280;5719;42.714;23.732;2024-03-25T06:26:28;93345.50;;;4.36;100.00
11329;BME280;5719;42.714;23.732;2024-03-25T06:28:53;93344.47;;;4.39;100.00
11329;BME280;5719;42.714;23.732;2024-03-25T06:31:19;93335.66;;;4.56;100.00
11329;BME280;5719;42.714;23.732;2024-03-25T06:34:03;93331.69;;;4.52;100.00
11329;BME280;5719;42.714;23.732;2024-03-25T06:36:41;93348.44;;;4.56;100.00
11329;BME280;5719;42.714;23.732;2024-03-25T06:39:07;93354.72;;;4.64;100.00
11329;BME280;5719;42.714;23.732;2024-03-25T06:41:34;93352.75;;;4.68;100.00
11329;BME280;5719;42.714;23.732;2024-03-25T06:44:00;93356.13;;;4.81;100.00
11329;BME280;5719;42.714;23.732;2024-03-25T06:46:26;93351.44;;;4.87;100.00
11329;BME280;5719;42.714;23.732;2024-03-25T06:48:52;93361.25;;;4.93;100.00
11329;BME280;5719;42.714;23.732;2024-03-25T06:51:18;93372.72;;;4.88;100.00
11329;BME280;5719;42.714;23.732;2024-03-25T06:53:44;93362.25;;;5.04;100.00
11329;BME280;5719;42.714;23.732;2024-03-25T06:56:10;93367.59;;;5.01;100.00
11329;BME280;5719;42.714;23.732;2024-03-25T06:58:37;93370.56;;;4.94;100.00
11329;BME280;5719;42.714;23.732;2024-03-25T07:01:08;93373.44;;;4.77;100.00
11329;BME280;5719;42.714;23.732;2024-03-25T07:03:35;93370.69;;;4.68;100.00
11329;BME280;5719;42.714;23.732;2024-03-25T07:06:02;93384.41;;;4.79;100.00
11329;BME280;5719;42.714;23.732;2024-03-25T07:08:28;93373.56;;;4.51;100.00
11329;BME280;5719;42.714;23.732;2024-03-25T07:10:54;93384.69;;;4.50;100.00
11329;BME280;5719;42.714;23.732;2024-03-25T07:13:20;93385.59;;;4.49;100.00
11329;BME280;5719;42.714;23.732;2024-03-25T07:15:47;93369.97;;;4.53;100.00
11329;BME280;5719;42.714;23.732;2024-03-25T07:18:13;93383.06;;;4.61;100.00
11329;BME280;5719;42.714;23.732;2024-03-25T07:20:39;93385.00;;;4.70;100.00
11329;BME280;5719;42.714;23.732;2024-03-25T07:23:05;93387.56;;;4.70;100.00
11329;BME280;5719;42.714;23.732;2024-03-25T07:25:31;93374.28;;;4.65;100.00
11329;BME280;5719;42.714;23.732;2024-03-25T07:27:57;93388.69;;;4.79;100.00
11329;BME280;5719;42.714;23.732;2024-03-25T07:30:23;93366.66;;;5.02;100.00
11329;BME280;5719;42.714;23.732;2024-03-25T07:32:50;93386.31;;;5.50;100.00
11329;BME280;5719;42.714;23.732;2024-03-25T07:35:16;93381.50;;;5.82;100.00
11329;BME280;5719;42.714;23.732;2024-03-25T07:37:42;93389.97;;;5.71;100.00
11329;BME280;5719;42.714;23.732;2024-03-25T07:40:08;93376.97;;;5.62;100.00
11329;BME280;5719;42.714;23.732;2024-03-25T07:42:35;93386.19;;;5.64;99.18
11329;BME280;5719;42.714;23.732;2024-03-25T07:45:01;93377.84;;;5.73;98.41
11329;BME280;5719;42.714;23.732;2024-03-25T07:47:27;93392.38;;;5.85;98.01
11329;BME280;5719;42.714;23.732;2024-03-25T07:49:54;93389.41;;;6.15;97.28
11329;BME280;5719;42.714;23.732;2024-03-25T07:52:20;93385.56;;;6.78;95.94
11329;BME280;5719;42.714;23.732;2024-03-25T07:54:45;93399.28;;;7.45;93.50
11329;BME280;5719;42.714;23.732;2024-03-25T07:57:11;93398.81;;;7.29;89.71
11329;BME280;5719;42.714;23.732;2024-03-25T07:59:37;93389.91;;;7.66;85.89
11329;BME280;5719;42.714;23.732;2024-03-25T08:02:03;93385.69;;;7.65;82.99
11329;BME280;5719;42.714;23.732;2024-03-25T08:04:29;93369.09;;;7.58;82.45
11329;BME280;5719;42.714;23.732;2024-03-25T08:06:56;93387.34;;;7.33;86.87
11329;BME280;5719;42.714;23.732;2024-03-25T08:09:22;93390.97;;;7.64;85.67
11329;BME280;5719;42.714;23.732;2024-03-25T08:11:48;93399.53;;;7.42;82.78
11329;BME280;5719;42.714;23.732;2024-03-25T08:14:14;93396.03;;;7.10;85.75
11329;BME280;5719;42.714;23.732;2024-03-25T08:16:39;93396.38;;;7.27;85.24
11329;BME280;5719;42.714;23.732;2024-03-25T08:19:05;93392.94;;;6.82;85.82
11329;BME280;5719;42.714;23.732;2024-03-25T08:21:31;93379.41;;;6.69;87.82
11329;BME280;5719;42.714;23.732;2024-03-25T08:23:58;93389.38;;;6.50;90.58
11329;BME280;5719;42.714;23.732;2024-03-25T08:26:24;93396.53;;;6.58;90.09
11329;BME280;5719;42.714;23.732;2024-03-25T08:28:50;93388.22;;;6.54;89.78
11329;BME280;5719;42.714;23.732;2024-03-25T08:31:16;93409.28;;;6.81;89.33
11329;BME280;5719;42.714;23.732;2024-03-25T08:33:41;93392.38;;;6.90;90.79
11329;BME280;5719;42.714;23.732;2024-03-25T08:36:07;93399.63;;;7.18;87.57
11329;BME280;5719;42.714;23.732;2024-03-25T08:38:33;93393.56;;;7.53;87.87
11329;BME280;5719;42.714;23.732;2024-03-25T08:41:00;93400.72;;;8.35;83.98
11329;BME280;5719;42.714;23.732;2024-03-25T08:43:26;93404.03;;;8.58;76.04
11329;BME280;5719;42.714;23.732;2024-03-25T08:45:52;93401.56;;;8.56;79.01
11329;BME280;5719;42.714;23.732;2024-03-25T08:48:18;93399.19;;;8.85;77.53
11329;BME280;5719;42.714;23.732;2024-03-25T08:50:43;93403.19;;;9.50;72.09
11329;BME280;5719;42.714;23.732;2024-03-25T08:53:09;93404.25;;;9.87;73.70
11329;BME280;5719;42.714;23.732;2024-03-25T08:55:35;93383.91;;;10.13;71.81
11329;BME280;5719;42.714;23.732;2024-03-25T08:58:03;93389.00;;;10.43;70.52
11329;BME280;5719;42.714;23.732;2024-03-25T09:00:29;93401.34;;;10.49;65.44
11329;BME280;5719;42.714;23.732;2024-03-25T09:02:54;93405.75;;;9.50;69.47
11329;BME280;5719;42.714;23.732;2024-03-25T09:05:21;93399.91;;;9.48;68.30
11329;BME280;5719;42.714;23.732;2024-03-25T09:07:49;93408.84;;;9.13;68.31
11329;BME280;5719;42.714;23.732;2024-03-25T09:10:15;93404.00;;;9.20;70.54
11329;BME280;5719;42.714;23.732;2024-03-25T09:12:59;93404.38;;;9.95;69.54
11329;BME280;5719;42.714;23.732;2024-03-25T09:15:26;93419.22;;;9.23;70.44
11329;BME280;5719;42.714;23.732;2024-03-25T09:17:52;93396.31;;;9.69;70.60
11329;BME280;5719;42.714;23.732;2024-03-25T09:20:22;93403.81;;;10.22;69.45
11329;BME280;5719;42.714;23.732;2024-03-25T09:22:48;93389.31;;;9.91;67.78
11329;BME280;5719;42.714;23.732;2024-03-25T09:25:14;93420.88;;;9.54;71.30
11329;BME280;5719;42.714;23.732;2024-03-25T09:27:40;93425.75;;;9.27;70.96
11329;BME280;5719;42.714;23.732;2024-03-25T09:30:07;93421.25;;;9.99;69.01
11329;BME280;5719;42.714;23.732;2024-03-25T09:32:35;93413.09;;;9.94;66.57
11329;BME280;5719;42.714;23.732;2024-03-25T09:35:00;93421.09;;;9.91;67.15
11329;BME280;5719;42.714;23.732;2024-03-25T09:37:26;93424.72;;;10.19;67.61
11329;BME280;5719;42.714;23.732;2024-03-25T09:39:52;93427.06;;;9.92;68.24
11329;BME280;5719;42.714;23.732;2024-03-25T09:42:23;93424.97;;;9.66;65.73
11329;BME280;5719;42.714;23.732;2024-03-25T09:44:51;93428.91;;;9.10;67.53
11329;BME280;5719;42.714;23.732;2024-03-25T09:47:17;93437.41;;;8.80;70.50
11329;BME280;5719;42.714;23.732;2024-03-25T09:49:45;93435.94;;;9.08;71.37
11329;BME280;5719;42.714;23.732;2024-03-25T09:52:12;93437.72;;;9.28;68.87
11329;BME280;5719;42.714;23.732;2024-03-25T09:54:39;93441.28;;;9.16;68.08
11329;BME280;5719;42.714;23.732;2024-03-25T09:57:05;93439.34;;;9.08;70.77
11329;BME280;5719;42.714;23.732;2024-03-25T09:59:32;93432.47;;;9.18;70.62
11329;BME280;5719;42.714;23.732;2024-03-25T10:01:58;93436.75;;;9.29;67.59
11329;BME280;5719;42.714;23.732;2024-03-25T10:04:25;93442.00;;;9.18;68.17
11329;BME280;5719;42.714;23.732;2024-03-25T10:06:52;93447.75;;;9.31;68.01
11329;BME280;5719;42.714;23.732;2024-03-25T10:09:19;93448.75;;;9.40;67.49
11329;BME280;5719;42.714;23.732;2024-03-25T10:11:47;93463.00;;;9.64;66.69
11329;BME280;5719;42.714;23.732;2024-03-25T10:14:15;93452.78;;;9.63;63.79
11329;BME280;5719;42.714;23.732;2024-03-25T10:16:41;93451.38;;;9.79;64.42
11329;BME280;5719;42.714;23.732;2024-03-25T10:19:07;93447.72;;;9.92;64.58
11329;BME280;5719;42.714;23.732;2024-03-25T10:21:33;93457.66;;;9.87;64.60
11329;BME280;5719;42.714;23.732;2024-03-25T10:24:01;93443.56;;;9.60;64.85
11329;BME280;5719;42.714;23.732;2024-03-25T10:26:27;93454.31;;;9.14;68.05
11329;BME280;5719;42.714;23.732;2024-03-25T10:29:01;93458.25;;;9.18;68.63
11329;BME280;5719;42.714;23.732;2024-03-25T10:31:27;93463.22;;;8.90;68.16
11329;BME280;5719;42.714;23.732;2024-03-25T10:33:53;93448.13;;;8.64;71.59
11329;BME280;5719;42.714;23.732;2024-03-25T10:36:21;93443.13;;;8.83;72.78
11329;BME280;5719;42.714;23.732;2024-03-25T10:38:49;93448.44;;;8.71;69.52
11329;BME280;5719;42.714;23.732;2024-03-25T10:41:18;93464.03;;;8.69;73.23
11329;BME280;5719;42.714;23.732;2024-03-25T10:43:46;93456.44;;;8.25;73.88
11329;BME280;5719;42.714;23.732;2024-03-25T10:46:17;93477.63;;;8.17;75.55
11329;BME280;5719;42.714;23.732;2024-03-25T10:48:48;93478.47;;;8.29;78.38
11329;BME280;5719;42.714;23.732;2024-03-25T10:51:20;93469.25;;;8.79;78.73
11329;BME280;5719;42.714;23.732;2024-03-25T10:53:48;93467.03;;;9.57;72.81
11329;BME280;5719;42.714;23.732;2024-03-25T10:56:20;93452.44;;;10.17;70.17
11329;BME280;5719;42.714;23.732;2024-03-25T10:58:48;93460.41;;;10.63;66.47
11329;BME280;5719;42.714;23.732;2024-03-25T11:01:15;93467.75;;;10.87;65.89
11329;BME280;5719;42.714;23.732;2024-03-25T11:03:42;93467.44;;;10.23;65.93
11329;BME280;5719;42.714;23.732;2024-03-25T11:06:08;93470.19;;;10.50;62.63
11329;BME280;5719;42.714;23.732;2024-03-25T11:08:34;93479.25;;;9.85;59.31
11329;BME280;5719;42.714;23.732;2024-03-25T11:11:00;93487.59;;;9.68;65.05
11329;BME280;5719;42.714;23.732;2024-03-25T11:13:27;93495.56;;;8.94;72.57
11329;BME280;5719;42.714;23.732;2024-03-25T11:15:53;93496.56;;;8.27;81.70
11329;BME280;5719;42.714;23.732;2024-03-25T11:18:22;93486.00;;;7.54;84.31
11329;BME280;5719;42.714;23.732;2024-03-25T11:21:00;93486.47;;;7.37;89.08
11329;BME280;5719;42.714;23.732;2024-03-25T11:23:26;93482.88;;;6.94;92.69
11329;BME280;5719;42.714;23.732;2024-03-25T11:25:55;93484.22;;;6.75;93.41
11329;BME280;5719;42.714;23.732;2024-03-25T11:28:28;93492.06;;;6.50;91.39
11329;BME280;5719;42.714;23.732;2024-03-25T11:30:55;93486.78;;;6.40;86.95
11329;BME280;5719;42.714;23.732;2024-03-25T11:33:21;93491.22;;;6.02;88.15
11329;BME280;5719;42.714;23.732;2024-03-25T11:35:48;93491.06;;;5.93;89.68
11329;BME280;5719;42.714;23.732;2024-03-25T11:38:14;93480.88;;;5.29;89.84
11329;BME280;5719;42.714;23.732;2024-03-25T11:40:42;93491.75;;;5.33;90.38
11329;BME280;5719;42.714;23.732;2024-03-25T11:43:09;93498.50;;;5.59;94.03
11329;BME280;5719;42.714;23.732;2024-03-25T11:45:36;93508.56;;;5.37;97.56
11329;BME280;5719;42.714;23.732;2024-03-25T11:48:02;93501.88;;;5.47;100.00
11329;BME280;5719;42.714;23.732;2024-03-25T11:50:29;93508.22;;;5.67;100.00
11329;BME280;5719;42.714;23.732;2024-03-25T11:52:54;93509.53;;;5.85;100.00
11329;BME280;5719;42.714;23.732;2024-03-25T11:55:20;93512.50;;;6.04;100.00
11329;BME280;5719;42.714;23.732;2024-03-25T11:57:46;93512.66;;;6.14;100.00
11329;BME280;5719;42.714;23.732;2024-03-25T12:00:12;93522.06;;;6.26;100.00
11329;BME280;5719;42.714;23.732;2024-03-25T12:02:42;93523.97;;;6.35;100.00
11329;BME280;5719;42.714;23.732;2024-03-25T12:05:08;93521.69;;;6.43;100.00
11329;BME280;5719;42.714;23.732;2024-03-25T12:07:34;93508.06;;;6.88;100.00
11329;BME280;5719;42.714;23.732;2024-03-25T12:10:00;93503.53;;;7.49;100.00
11329;BME280;5719;42.714;23.732;2024-03-25T12:12:45;93496.16;;;8.00;99.05
11329;BME280;5719;42.714;23.732;2024-03-25T12:15:11;93496.25;;;8.10;95.73
11329;BME280;5719;42.714;23.732;2024-03-25T12:17:37;93481.50;;;8.23;97.34
11329;BME280;5719;42.714;23.732;2024-03-25T12:20:05;93484.78;;;8.36;91.38
11329;BME280;5719;42.714;23.732;2024-03-25T12:22:33;93450.44;;;7.93;87.72
11329;BME280;5719;42.714;23.732;2024-03-25T12:25:00;93458.56;;;8.09;88.84
11329;BME280;5719;42.714;23.732;2024-03-25T12:27:27;93466.13;;;7.89;86.23
11329;BME280;5719;42.714;23.732;2024-03-25T12:29:58;93468.69;;;7.78;88.28
11329;BME280;5719;42.714;23.732;2024-03-25T12:32:31;93466.38;;;7.42;87.78
11329;BME280;5719;42.714;23.732;2024-03-25T12:34:58;93469.88;;;7.41;91.53
11329;BME280;5719;42.714;23.732;2024-03-25T12:37:26;93477.56;;;7.30;90.36
11329;BME280;5719;42.714;23.732;2024-03-25T12:39:51;93495.91;;;7.25;97.04
11329;BME280;5719;42.714;23.732;2024-03-25T12:42:17;93444.78;;;6.76;98.92
11329;BME280;5719;42.714;23.732;2024-03-25T12:44:43;93533.63;;;6.79;98.25
11329;BME280;5719;42.714;23.732;2024-03-25T12:47:10;93543.22;;;6.77;99.90
11329;BME280;5719;42.714;23.732;2024-03-25T12:49:36;93550.19;;;6.75;100.00
11329;BME280;5719;42.714;23.732;2024-03-25T12:52:05;93555.38;;;6.38;100.00
11329;BME280;5719;42.714;23.732;2024-03-25T12:54:32;93520.63;;;6.46;100.00
11329;BME280;5719;42.714;23.732;2024-03-25T12:56:58;93517.66;;;6.86;100.00
11329;BME280;5719;42.714;23.732;2024-03-25T12:59:24;93517.06;;;7.29;100.00